sensor_id;sensor_type;location;lat;lon;timestamp;P1;durP1;ratioP1;P2;durP2;ratioP2
78787;SDS011;68131;52.508;5.502;2023-09-08T00:00:48;2.92;;;2.42;;
78787;SDS011;68131;52.508;5.502;2023-09-08T00:03:19;3.67;;;2.78;;
78787;SDS011;68131;52.508;5.502;2023-09-08T00:05:51;5.53;;;3.85;;
78787;SDS011;68131;52.508;5.502;2023-09-08T00:08:20;5.78;;;3.90;;
78787;SDS011;68131;52.508;5.502;2023-09-08T00:10:49;5.28;;;3.70;;
78787;SDS011;68131;52.508;5.502;2023-09-08T00:13:25;3.95;;;2.55;;
78787;SDS011;68131;52.508;5.502;2023-09-08T00:15:55;4.07;;;3.03;;
78787;SDS011;68131;52.508;5.502;2023-09-08T00:18:24;6.38;;;3.00;;
78787;SDS011;68131;52.508;5.502;2023-09-08T00:20:53;4.25;;;3.20;;
78787;SDS011;68131;52.508;5.502;2023-09-08T00:23:22;5.47;;;3.35;;
78787;SDS011;68131;52.508;5.502;2023-09-08T00:25:53;3.17;;;2.60;;
78787;SDS011;68131;52.508;5.502;2023-09-08T00:28:26;3.47;;;3.10;;
78787;SDS011;68131;52.508;5.502;2023-09-08T00:30:56;4.88;;;3.50;;
78787;SDS011;68131;52.508;5.502;2023-09-08T00:33:29;4.25;;;3.20;;
78787;SDS011;68131;52.508;5.502;2023-09-08T00:36:00;4.57;;;3.47;;
78787;SDS011;68131;52.508;5.502;2023-09-08T00:38:32;5.47;;;3.53;;
78787;SDS011;68131;52.508;5.502;2023-09-08T00:41:01;5.50;;;3.83;;
78787;SDS011;68131;52.508;5.502;2023-09-08T00:43:35;4.85;;;3.22;;
78787;SDS011;68131;52.508;5.502;2023-09-08T00:48:37;4.22;;;3.35;;
78787;SDS011;68131;52.508;5.502;2023-09-08T00:51:06;5.22;;;3.80;;
78787;SDS011;68131;52.508;5.502;2023-09-08T00:53:39;4.10;;;3.15;;
78787;SDS011;68131;52.508;5.502;2023-09-08T00:56:09;5.70;;;3.65;;
78787;SDS011;68131;52.508;5.502;2023-09-08T00:58:42;4.97;;;3.50;;
78787;SDS011;68131;52.508;5.502;2023-09-08T01:01:11;4.65;;;3.63;;
78787;SDS011;68131;52.508;5.502;2023-09-08T01:03:43;3.75;;;3.08;;
78787;SDS011;68131;52.508;5.502;2023-09-08T01:06:18;4.85;;;3.60;;
78787;SDS011;68131;52.508;5.502;2023-09-08T01:08:50;5.07;;;3.97;;
78787;SDS011;68131;52.508;5.502;2023-09-08T01:11:21;5.18;;;3.42;;
78787;SDS011;68131;52.508;5.502;2023-09-08T01:13:54;5.78;;;3.92;;
78787;SDS011;68131;52.508;5.502;2023-09-08T01:16:25;5.10;;;3.10;;
78787;SDS011;68131;52.508;5.502;2023-09-08T01:21:32;5.28;;;3.47;;
78787;SDS011;68131;52.508;5.502;2023-09-08T01:24:18;5.03;;;3.40;;
78787;SDS011;68131;52.508;5.502;2023-09-08T01:27:05;5.68;;;3.50;;
78787;SDS011;68131;52.508;5.502;2023-09-08T01:29:38;4.82;;;4.00;;
78787;SDS011;68131;52.508;5.502;2023-09-08T01:32:09;5.20;;;3.80;;
78787;SDS011;68131;52.508;5.502;2023-09-08T01:34:39;5.53;;;3.42;;
78787;SDS011;68131;52.508;5.502;2023-09-08T01:37:11;4.60;;;3.72;;
78787;SDS011;68131;52.508;5.502;2023-09-08T01:39:51;9.00;;;3.90;;
78787;SDS011;68131;52.508;5.502;2023-09-08T01:42:23;4.93;;;4.25;;
78787;SDS011;68131;52.508;5.502;2023-09-08T01:44:53;6.32;;;3.75;;
78787;SDS011;68131;52.508;5.502;2023-09-08T01:47:22;5.32;;;3.83;;
78787;SDS011;68131;52.508;5.502;2023-09-08T01:49:51;4.93;;;3.35;;
78787;SDS011;68131;52.508;5.502;2023-09-08T01:52:20;5.82;;;3.67;;
78787;SDS011;68131;52.508;5.502;2023-09-08T01:54:50;5.60;;;3.72;;
78787;SDS011;68131;52.508;5.502;2023-09-08T01:57:23;4.63;;;3.33;;
78787;SDS011;68131;52.508;5.502;2023-09-08T01:59:53;4.55;;;2.80;;
78787;SDS011;68131;52.508;5.502;2023-09-08T02:02:22;7.80;;;3.47;;
78787;SDS011;68131;52.508;5.502;2023-09-08T02:04:52;6.55;;;3.25;;
78787;SDS011;68131;52.508;5.502;2023-09-08T02:07:21;4.25;;;3.22;;
78787;SDS011;68131;52.508;5.502;2023-09-08T02:09:51;4.70;;;3.72;;
78787;SDS011;68131;52.508;5.502;2023-09-08T02:12:23;6.00;;;4.32;;
78787;SDS011;68131;52.508;5.502;2023-09-08T02:14:54;4.38;;;3.53;;
78787;SDS011;68131;52.508;5.502;2023-09-08T02:17:25;5.72;;;3.35;;
78787;SDS011;68131;52.508;5.502;2023-09-08T02:19:56;5.43;;;4.25;;
78787;SDS011;68131;52.508;5.502;2023-09-08T02:22:25;4.18;;;3.05;;
78787;SDS011;68131;52.508;5.502;2023-09-08T02:24:54;4.75;;;3.22;;
78787;SDS011;68131;52.508;5.502;2023-09-08T02:27:32;4.53;;;3.67;;
78787;SDS011;68131;52.508;5.502;2023-09-08T02:30:05;6.05;;;3.53;;
78787;SDS011;68131;52.508;5.502;2023-09-08T02:32:35;6.47;;;3.78;;
78787;SDS011;68131;52.508;5.502;2023-09-08T02:35:11;4.05;;;2.65;;
78787;SDS011;68131;52.508;5.502;2023-09-08T02:37:43;4.57;;;3.40;;
78787;SDS011;68131;52.508;5.502;2023-09-08T02:40:12;2.58;;;2.10;;
78787;SDS011;68131;52.508;5.502;2023-09-08T02:42:47;4.60;;;3.10;;
78787;SDS011;68131;52.508;5.502;2023-09-08T02:45:16;5.40;;;3.50;;
78787;SDS011;68131;52.508;5.502;2023-09-08T02:47:46;4.72;;;3.00;;
78787;SDS011;68131;52.508;5.502;2023-09-08T02:50:16;4.97;;;3.30;;
78787;SDS011;68131;52.508;5.502;2023-09-08T02:52:45;5.15;;;3.55;;
78787;SDS011;68131;52.508;5.502;2023-09-08T02:55:15;5.47;;;3.90;;
78787;SDS011;68131;52.508;5.502;2023-09-08T02:57:49;4.95;;;3.83;;
78787;SDS011;68131;52.508;5.502;2023-09-08T03:00:19;5.07;;;3.10;;
78787;SDS011;68131;52.508;5.502;2023-09-08T03:02:51;6.25;;;3.85;;
78787;SDS011;68131;52.508;5.502;2023-09-08T03:05:20;5.40;;;3.67;;
78787;SDS011;68131;52.508;5.502;2023-09-08T03:07:50;6.18;;;3.53;;
78787;SDS011;68131;52.508;5.502;2023-09-08T03:10:20;5.18;;;3.88;;
78787;SDS011;68131;52.508;5.502;2023-09-08T03:12:52;3.53;;;3.03;;
78787;SDS011;68131;52.508;5.502;2023-09-08T03:15:24;11.25;;;3.78;;
78787;SDS011;68131;52.508;5.502;2023-09-08T03:17:59;5.22;;;4.00;;
78787;SDS011;68131;52.508;5.502;2023-09-08T03:20:30;6.03;;;4.50;;
78787;SDS011;68131;52.508;5.502;2023-09-08T03:23:00;6.13;;;4.32;;
78787;SDS011;68131;52.508;5.502;2023-09-08T03:25:31;4.07;;;3.38;;
78787;SDS011;68131;52.508;5.502;2023-09-08T03:28:03;6.07;;;4.20;;
78787;SDS011;68131;52.508;5.502;2023-09-08T03:30:32;5.45;;;3.22;;
78787;SDS011;68131;52.508;5.502;2023-09-08T03:33:06;6.53;;;3.88;;
78787;SDS011;68131;52.508;5.502;2023-09-08T03:35:36;5.45;;;4.00;;
78787;SDS011;68131;52.508;5.502;2023-09-08T03:38:05;6.05;;;4.40;;
78787;SDS011;68131;52.508;5.502;2023-09-08T03:40:34;5.55;;;4.63;;
78787;SDS011;68131;52.508;5.502;2023-09-08T03:43:06;5.93;;;4.30;;
78787;SDS011;68131;52.508;5.502;2023-09-08T03:45:36;6.18;;;4.07;;
78787;SDS011;68131;52.508;5.502;2023-09-08T03:48:07;6.45;;;4.53;;
78787;SDS011;68131;52.508;5.502;2023-09-08T03:50:36;5.93;;;4.22;;
78787;SDS011;68131;52.508;5.502;2023-09-08T03:53:06;5.97;;;4.03;;
78787;SDS011;68131;52.508;5.502;2023-09-08T03:55:36;6.03;;;4.38;;
78787;SDS011;68131;52.508;5.502;2023-09-08T03:58:08;4.25;;;3.45;;
78787;SDS011;68131;52.508;5.502;2023-09-08T04:00:38;5.95;;;3.67;;
78787;SDS011;68131;52.508;5.502;2023-09-08T04:03:07;6.10;;;4.07;;
78787;SDS011;68131;52.508;5.502;2023-09-08T04:05:37;5.93;;;4.50;;
78787;SDS011;68131;52.508;5.502;2023-09-08T04:08:06;7.05;;;4.25;;
78787;SDS011;68131;52.508;5.502;2023-09-08T04:10:35;4.88;;;3.42;;
78787;SDS011;68131;52.508;5.502;2023-09-08T04:13:05;6.38;;;4.25;;
78787;SDS011;68131;52.508;5.502;2023-09-08T04:15:36;4.95;;;3.45;;
78787;SDS011;68131;52.508;5.502;2023-09-08T04:18:08;5.70;;;4.07;;
78787;SDS011;68131;52.508;5.502;2023-09-08T04:20:38;6.38;;;4.10;;
78787;SDS011;68131;52.508;5.502;2023-09-08T04:23:12;6.05;;;4.13;;
78787;SDS011;68131;52.508;5.502;2023-09-08T04:25:42;7.05;;;4.80;;
78787;SDS011;68131;52.508;5.502;2023-09-08T04:28:14;4.78;;;3.65;;
78787;SDS011;68131;52.508;5.502;2023-09-08T04:30:49;7.38;;;4.22;;
78787;SDS011;68131;52.508;5.502;2023-09-08T04:33:18;6.65;;;4.25;;
78787;SDS011;68131;52.508;5.502;2023-09-08T04:35:56;6.78;;;4.55;;
78787;SDS011;68131;52.508;5.502;2023-09-08T04:38:29;7.28;;;4.47;;
78787;SDS011;68131;52.508;5.502;2023-09-08T04:40:58;8.00;;;4.82;;
78787;SDS011;68131;52.508;5.502;2023-09-08T04:43:30;6.07;;;4.45;;
78787;SDS011;68131;52.508;5.502;2023-09-08T04:46:02;9.27;;;5.25;;
78787;SDS011;68131;52.508;5.502;2023-09-08T04:48:32;9.38;;;4.63;;
78787;SDS011;68131;52.508;5.502;2023-09-08T04:51:01;6.82;;;5.05;;
78787;SDS011;68131;52.508;5.502;2023-09-08T04:53:30;6.40;;;4.57;;
78787;SDS011;68131;52.508;5.502;2023-09-08T04:56:02;6.82;;;4.88;;
78787;SDS011;68131;52.508;5.502;2023-09-08T04:58:34;7.53;;;4.43;;
78787;SDS011;68131;52.508;5.502;2023-09-08T05:01:04;6.63;;;5.10;;
78787;SDS011;68131;52.508;5.502;2023-09-08T05:03:34;6.55;;;4.22;;
78787;SDS011;68131;52.508;5.502;2023-09-08T05:06:07;6.88;;;5.30;;
78787;SDS011;68131;52.508;5.502;2023-09-08T05:08:36;7.32;;;5.45;;
78787;SDS011;68131;52.508;5.502;2023-09-08T05:11:07;7.95;;;5.50;;
78787;SDS011;68131;52.508;5.502;2023-09-08T05:13:39;5.90;;;4.30;;
78787;SDS011;68131;52.508;5.502;2023-09-08T05:16:08;7.60;;;4.85;;
78787;SDS011;68131;52.508;5.502;2023-09-08T05:18:44;7.53;;;4.85;;
78787;SDS011;68131;52.508;5.502;2023-09-08T05:21:13;7.97;;;5.10;;
78787;SDS011;68131;52.508;5.502;2023-09-08T05:23:45;6.88;;;4.55;;
78787;SDS011;68131;52.508;5.502;2023-09-08T05:26:15;6.05;;;4.70;;
78787;SDS011;68131;52.508;5.502;2023-09-08T05:28:49;7.45;;;4.90;;
78787;SDS011;68131;52.508;5.502;2023-09-08T05:31:18;6.00;;;4.72;;
78787;SDS011;68131;52.508;5.502;2023-09-08T05:33:48;6.43;;;4.53;;
78787;SDS011;68131;52.508;5.502;2023-09-08T05:36:21;5.65;;;4.45;;
78787;SDS011;68131;52.508;5.502;2023-09-08T05:38:51;11.20;;;4.53;;
78787;SDS011;68131;52.508;5.502;2023-09-08T05:41:20;8.52;;;4.78;;
78787;SDS011;68131;52.508;5.502;2023-09-08T05:43:54;7.03;;;5.25;;
78787;SDS011;68131;52.508;5.502;2023-09-08T05:46:23;5.40;;;4.50;;
78787;SDS011;68131;52.508;5.502;2023-09-08T05:48:56;6.88;;;4.18;;
78787;SDS011;68131;52.508;5.502;2023-09-08T05:51:31;6.70;;;4.32;;
78787;SDS011;68131;52.508;5.502;2023-09-08T05:54:04;5.30;;;3.92;;
78787;SDS011;68131;52.508;5.502;2023-09-08T05:56:33;6.97;;;4.45;;
78787;SDS011;68131;52.508;5.502;2023-09-08T05:59:05;8.10;;;5.10;;
78787;SDS011;68131;52.508;5.502;2023-09-08T06:01:36;10.15;;;5.07;;
78787;SDS011;68131;52.508;5.502;2023-09-08T06:04:09;9.98;;;4.20;;
78787;SDS011;68131;52.508;5.502;2023-09-08T06:06:38;5.60;;;4.05;;
78787;SDS011;68131;52.508;5.502;2023-09-08T06:09:10;5.85;;;3.90;;
78787;SDS011;68131;52.508;5.502;2023-09-08T06:11:41;5.25;;;4.05;;
78787;SDS011;68131;52.508;5.502;2023-09-08T06:14:14;6.13;;;4.15;;
78787;SDS011;68131;52.508;5.502;2023-09-08T06:16:47;7.50;;;4.13;;
78787;SDS011;68131;52.508;5.502;2023-09-08T06:19:17;8.00;;;4.30;;
78787;SDS011;68131;52.508;5.502;2023-09-08T06:21:47;6.45;;;4.22;;
78787;SDS011;68131;52.508;5.502;2023-09-08T06:24:16;5.90;;;4.22;;
78787;SDS011;68131;52.508;5.502;2023-09-08T06:26:48;6.10;;;4.13;;
78787;SDS011;68131;52.508;5.502;2023-09-08T06:29:21;7.47;;;4.55;;
78787;SDS011;68131;52.508;5.502;2023-09-08T06:31:50;5.95;;;4.55;;
78787;SDS011;68131;52.508;5.502;2023-09-08T06:34:20;6.18;;;4.47;;
78787;SDS011;68131;52.508;5.502;2023-09-08T06:36:49;6.75;;;4.38;;
78787;SDS011;68131;52.508;5.502;2023-09-08T06:39:19;7.45;;;4.47;;
78787;SDS011;68131;52.508;5.502;2023-09-08T06:41:49;5.78;;;4.43;;
78787;SDS011;68131;52.508;5.502;2023-09-08T06:44:24;5.82;;;3.97;;
78787;SDS011;68131;52.508;5.502;2023-09-08T06:46:53;5.75;;;4.15;;
78787;SDS011;68131;52.508;5.502;2023-09-08T06:49:26;7.47;;;4.35;;
78787;SDS011;68131;52.508;5.502;2023-09-08T06:51:57;6.15;;;4.05;;
78787;SDS011;68131;52.508;5.502;2023-09-08T06:54:26;6.53;;;4.03;;
78787;SDS011;68131;52.508;5.502;2023-09-08T06:56:56;6.20;;;3.95;;
78787;SDS011;68131;52.508;5.502;2023-09-08T06:59:30;6.63;;;3.88;;
78787;SDS011;68131;52.508;5.502;2023-09-08T07:02:00;5.80;;;3.88;;
78787;SDS011;68131;52.508;5.502;2023-09-08T07:04:31;4.65;;;3.63;;
78787;SDS011;68131;52.508;5.502;2023-09-08T07:07:04;6.85;;;4.03;;
78787;SDS011;68131;52.508;5.502;2023-09-08T07:09:38;5.25;;;3.63;;
78787;SDS011;68131;52.508;5.502;2023-09-08T07:12:11;6.60;;;4.82;;
78787;SDS011;68131;52.508;5.502;2023-09-08T07:14:48;5.22;;;4.50;;
78787;SDS011;68131;52.508;5.502;2023-09-08T07:17:18;6.38;;;3.90;;
78787;SDS011;68131;52.508;5.502;2023-09-08T07:19:50;6.90;;;4.18;;
78787;SDS011;68131;52.508;5.502;2023-09-08T07:22:21;5.95;;;4.03;;
78787;SDS011;68131;52.508;5.502;2023-09-08T07:24:53;6.63;;;3.90;;
78787;SDS011;68131;52.508;5.502;2023-09-08T07:27:25;5.32;;;4.25;;
78787;SDS011;68131;52.508;5.502;2023-09-08T07:29:57;4.90;;;4.00;;
78787;SDS011;68131;52.508;5.502;2023-09-08T07:32:27;5.47;;;4.03;;
78787;SDS011;68131;52.508;5.502;2023-09-08T07:34:56;5.30;;;4.38;;
78787;SDS011;68131;52.508;5.502;2023-09-08T07:37:26;5.82;;;3.55;;
78787;SDS011;68131;52.508;5.502;2023-09-08T07:39:55;5.85;;;4.20;;
78787;SDS011;68131;52.508;5.502;2023-09-08T07:42:25;4.95;;;4.20;;
78787;SDS011;68131;52.508;5.502;2023-09-08T07:45:00;6.85;;;3.63;;
78787;SDS011;68131;52.508;5.502;2023-09-08T07:47:29;5.63;;;3.53;;
78787;SDS011;68131;52.508;5.502;2023-09-08T07:52:47;6.40;;;4.18;;
78787;SDS011;68131;52.508;5.502;2023-09-08T07:55:16;5.45;;;4.47;;
78787;SDS011;68131;52.508;5.502;2023-09-08T07:57:49;4.70;;;3.63;;
78787;SDS011;68131;52.508;5.502;2023-09-08T08:00:23;6.95;;;4.35;;
78787;SDS011;68131;52.508;5.502;2023-09-08T08:02:53;5.57;;;3.92;;
78787;SDS011;68131;52.508;5.502;2023-09-08T08:05:23;5.55;;;3.47;;
78787;SDS011;68131;52.508;5.502;2023-09-08T08:07:52;5.03;;;3.80;;
78787;SDS011;68131;52.508;5.502;2023-09-08T08:10:22;5.65;;;4.25;;
78787;SDS011;68131;52.508;5.502;2023-09-08T08:12:51;4.20;;;3.53;;
78787;SDS011;68131;52.508;5.502;2023-09-08T08:15:33;6.00;;;3.38;;
78787;SDS011;68131;52.508;5.502;2023-09-08T08:18:04;5.22;;;3.80;;
78787;SDS011;68131;52.508;5.502;2023-09-08T08:20:35;6.88;;;4.65;;
78787;SDS011;68131;52.508;5.502;2023-09-08T08:23:05;5.07;;;3.65;;
78787;SDS011;68131;52.508;5.502;2023-09-08T08:25:35;7.07;;;3.88;;
78787;SDS011;68131;52.508;5.502;2023-09-08T08:28:04;5.93;;;3.83;;
78787;SDS011;68131;52.508;5.502;2023-09-08T08:30:36;4.65;;;3.88;;
78787;SDS011;68131;52.508;5.502;2023-09-08T08:33:06;5.57;;;4.10;;
78787;SDS011;68131;52.508;5.502;2023-09-08T08:35:40;6.07;;;3.65;;
78787;SDS011;68131;52.508;5.502;2023-09-08T08:38:12;5.10;;;3.83;;
78787;SDS011;68131;52.508;5.502;2023-09-08T08:40:41;5.05;;;4.25;;
78787;SDS011;68131;52.508;5.502;2023-09-08T08:43:11;6.30;;;4.70;;
78787;SDS011;68131;52.508;5.502;2023-09-08T08:45:44;5.32;;;4.13;;
78787;SDS011;68131;52.508;5.502;2023-09-08T08:48:14;5.25;;;3.85;;
78787;SDS011;68131;52.508;5.502;2023-09-08T08:50:46;6.05;;;4.18;;
78787;SDS011;68131;52.508;5.502;2023-09-08T08:53:23;5.32;;;4.10;;
78787;SDS011;68131;52.508;5.502;2023-09-08T08:55:55;6.45;;;3.88;;
78787;SDS011;68131;52.508;5.502;2023-09-08T08:58:28;6.57;;;4.25;;
78787;SDS011;68131;52.508;5.502;2023-09-08T09:01:00;5.72;;;3.95;;
78787;SDS011;68131;52.508;5.502;2023-09-08T09:03:33;6.88;;;5.40;;
78787;SDS011;68131;52.508;5.502;2023-09-08T09:06:04;6.32;;;4.68;;
78787;SDS011;68131;52.508;5.502;2023-09-08T09:08:33;5.38;;;4.13;;
78787;SDS011;68131;52.508;5.502;2023-09-08T09:11:03;6.85;;;4.28;;
78787;SDS011;68131;52.508;5.502;2023-09-08T09:13:32;5.97;;;3.45;;
78787;SDS011;68131;52.508;5.502;2023-09-08T09:16:04;5.32;;;3.80;;
78787;SDS011;68131;52.508;5.502;2023-09-08T09:18:51;5.15;;;4.00;;
78787;SDS011;68131;52.508;5.502;2023-09-08T09:21:23;5.05;;;4.55;;
78787;SDS011;68131;52.508;5.502;2023-09-08T09:23:52;5.47;;;3.97;;
78787;SDS011;68131;52.508;5.502;2023-09-08T09:26:25;6.65;;;4.22;;
78787;SDS011;68131;52.508;5.502;2023-09-08T09:28:57;6.63;;;4.72;;
78787;SDS011;68131;52.508;5.502;2023-09-08T09:31:29;7.07;;;4.05;;
78787;SDS011;68131;52.508;5.502;2023-09-08T09:34:02;7.40;;;4.15;;
78787;SDS011;68131;52.508;5.502;2023-09-08T09:36:32;5.63;;;3.95;;
78787;SDS011;68131;52.508;5.502;2023-09-08T09:39:02;5.85;;;3.90;;
78787;SDS011;68131;52.508;5.502;2023-09-08T09:41:36;5.72;;;3.47;;
78787;SDS011;68131;52.508;5.502;2023-09-08T09:44:05;5.93;;;4.03;;
78787;SDS011;68131;52.508;5.502;2023-09-08T09:46:37;4.88;;;4.28;;
78787;SDS011;68131;52.508;5.502;2023-09-08T09:49:11;5.75;;;4.53;;
78787;SDS011;68131;52.508;5.502;2023-09-08T09:51:43;5.95;;;4.20;;
78787;SDS011;68131;52.508;5.502;2023-09-08T09:54:16;6.45;;;4.32;;
78787;SDS011;68131;52.508;5.502;2023-09-08T09:56:45;6.28;;;4.57;;
78787;SDS011;68131;52.508;5.502;2023-09-08T09:59:18;4.82;;;3.88;;
78787;SDS011;68131;52.508;5.502;2023-09-08T10:01:52;4.60;;;3.65;;
78787;SDS011;68131;52.508;5.502;2023-09-08T10:04:24;5.22;;;3.72;;
78787;SDS011;68131;52.508;5.502;2023-09-08T10:06:54;8.23;;;4.40;;
78787;SDS011;68131;52.508;5.502;2023-09-08T10:09:27;5.80;;;4.35;;
78787;SDS011;68131;52.508;5.502;2023-09-08T10:11:56;6.28;;;3.95;;
78787;SDS011;68131;52.508;5.502;2023-09-08T10:14:35;4.53;;;3.83;;
78787;SDS011;68131;52.508;5.502;2023-09-08T10:17:08;3.58;;;3.20;;
78787;SDS011;68131;52.508;5.502;2023-09-08T10:19:44;5.47;;;3.65;;
78787;SDS011;68131;52.508;5.502;2023-09-08T10:22:19;4.40;;;3.55;;
78787;SDS011;68131;52.508;5.502;2023-09-08T10:24:53;4.78;;;3.78;;
78787;SDS011;68131;52.508;5.502;2023-09-08T10:27:26;5.47;;;4.00;;
78787;SDS011;68131;52.508;5.502;2023-09-08T10:29:57;5.93;;;3.72;;
78787;SDS011;68131;52.508;5.502;2023-09-08T10:32:33;4.28;;;3.50;;
78787;SDS011;68131;52.508;5.502;2023-09-08T10:35:10;4.60;;;3.80;;
78787;SDS011;68131;52.508;5.502;2023-09-08T10:37:39;6.15;;;3.60;;
78787;SDS011;68131;52.508;5.502;2023-09-08T10:40:24;5.63;;;4.20;;
78787;SDS011;68131;52.508;5.502;2023-09-08T10:45:46;5.32;;;4.45;;
78787;SDS011;68131;52.508;5.502;2023-09-08T10:48:18;4.47;;;3.47;;
78787;SDS011;68131;52.508;5.502;2023-09-08T10:50:48;4.03;;;3.58;;
78787;SDS011;68131;52.508;5.502;2023-09-08T10:53:17;6.03;;;3.95;;
78787;SDS011;68131;52.508;5.502;2023-09-08T10:55:50;4.60;;;3.45;;
78787;SDS011;68131;52.508;5.502;2023-09-08T10:58:29;6.03;;;3.80;;
78787;SDS011;68131;52.508;5.502;2023-09-08T11:01:02;4.97;;;3.90;;
78787;SDS011;68131;52.508;5.502;2023-09-08T11:03:48;5.45;;;3.67;;
78787;SDS011;68131;52.508;5.502;2023-09-08T11:06:19;6.97;;;3.65;;
78787;SDS011;68131;52.508;5.502;2023-09-08T11:08:55;4.40;;;4.00;;
78787;SDS011;68131;52.508;5.502;2023-09-08T11:11:34;4.93;;;4.10;;
78787;SDS011;68131;52.508;5.502;2023-09-08T11:14:04;4.57;;;3.40;;
78787;SDS011;68131;52.508;5.502;2023-09-08T11:16:37;6.82;;;3.90;;
78787;SDS011;68131;52.508;5.502;2023-09-08T11:19:14;4.88;;;3.83;;
78787;SDS011;68131;52.508;5.502;2023-09-08T11:21:44;4.75;;;3.72;;
78787;SDS011;68131;52.508;5.502;2023-09-08T11:24:17;4.13;;;3.33;;
78787;SDS011;68131;52.508;5.502;2023-09-08T11:26:46;4.47;;;3.25;;
78787;SDS011;68131;52.508;5.502;2023-09-08T11:29:17;4.97;;;3.08;;
78787;SDS011;68131;52.508;5.502;2023-09-08T11:31:51;4.30;;;3.72;;
78787;SDS011;68131;52.508;5.502;2023-09-08T11:34:24;3.70;;;3.28;;
78787;SDS011;68131;52.508;5.502;2023-09-08T11:36:56;7.03;;;3.78;;
78787;SDS011;68131;52.508;5.502;2023-09-08T11:39:25;6.20;;;3.67;;
78787;SDS011;68131;52.508;5.502;2023-09-08T11:41:57;3.80;;;3.45;;
78787;SDS011;68131;52.508;5.502;2023-09-08T11:44:29;4.32;;;3.03;;
78787;SDS011;68131;52.508;5.502;2023-09-08T11:47:01;3.08;;;2.75;;
78787;SDS011;68131;52.508;5.502;2023-09-08T11:49:45;3.53;;;3.22;;
78787;SDS011;68131;52.508;5.502;2023-09-08T11:52:14;3.88;;;3.45;;
78787;SDS011;68131;52.508;5.502;2023-09-08T11:54:48;4.30;;;3.15;;
78787;SDS011;68131;52.508;5.502;2023-09-08T11:57:19;4.47;;;3.95;;
78787;SDS011;68131;52.508;5.502;2023-09-08T11:59:49;5.38;;;3.55;;
78787;SDS011;68131;52.508;5.502;2023-09-08T12:02:21;4.10;;;3.30;;
78787;SDS011;68131;52.508;5.502;2023-09-08T12:04:58;3.80;;;3.45;;
78787;SDS011;68131;52.508;5.502;2023-09-08T12:07:29;3.20;;;2.90;;
78787;SDS011;68131;52.508;5.502;2023-09-08T12:09:59;4.50;;;3.83;;
78787;SDS011;68131;52.508;5.502;2023-09-08T12:12:42;6.93;;;3.53;;
78787;SDS011;68131;52.508;5.502;2023-09-08T12:18:01;4.45;;;3.40;;
78787;SDS011;68131;52.508;5.502;2023-09-08T12:20:39;4.55;;;3.63;;
78787;SDS011;68131;52.508;5.502;2023-09-08T12:23:17;2.90;;;2.60;;
78787;SDS011;68131;52.508;5.502;2023-09-08T12:25:50;3.28;;;2.90;;
78787;SDS011;68131;52.508;5.502;2023-09-08T12:28:20;3.95;;;2.78;;
78787;SDS011;68131;52.508;5.502;2023-09-08T12:30:50;3.90;;;3.00;;
78787;SDS011;68131;52.508;5.502;2023-09-08T12:33:20;3.67;;;3.20;;
78787;SDS011;68131;52.508;5.502;2023-09-08T12:35:54;3.38;;;2.92;;
78787;SDS011;68131;52.508;5.502;2023-09-08T12:38:23;3.53;;;2.70;;
78787;SDS011;68131;52.508;5.502;2023-09-08T12:40:59;2.55;;;2.28;;
78787;SDS011;68131;52.508;5.502;2023-09-08T12:43:33;2.75;;;2.55;;
78787;SDS011;68131;52.508;5.502;2023-09-08T12:46:03;2.97;;;2.67;;
78787;SDS011;68131;52.508;5.502;2023-09-08T12:48:33;3.90;;;2.50;;
78787;SDS011;68131;52.508;5.502;2023-09-08T12:51:05;3.10;;;2.60;;
78787;SDS011;68131;52.508;5.502;2023-09-08T12:53:36;3.33;;;2.92;;
78787;SDS011;68131;52.508;5.502;2023-09-08T12:56:05;5.47;;;3.28;;
78787;SDS011;68131;52.508;5.502;2023-09-08T12:58:34;3.72;;;2.70;;
78787;SDS011;68131;52.508;5.502;2023-09-08T13:01:05;5.35;;;3.20;;
78787;SDS011;68131;52.508;5.502;2023-09-08T13:03:34;5.05;;;2.63;;
78787;SDS011;68131;52.508;5.502;2023-09-08T13:06:09;3.80;;;2.53;;
78787;SDS011;68131;52.508;5.502;2023-09-08T13:08:41;3.75;;;3.17;;
78787;SDS011;68131;52.508;5.502;2023-09-08T13:11:13;3.60;;;2.65;;
78787;SDS011;68131;52.508;5.502;2023-09-08T13:13:42;3.70;;;3.28;;
78787;SDS011;68131;52.508;5.502;2023-09-08T13:16:11;3.22;;;2.70;;
78787;SDS011;68131;52.508;5.502;2023-09-08T13:18:40;3.83;;;3.00;;
78787;SDS011;68131;52.508;5.502;2023-09-08T13:21:15;3.67;;;3.20;;
78787;SDS011;68131;52.508;5.502;2023-09-08T13:23:47;3.30;;;2.80;;
78787;SDS011;68131;52.508;5.502;2023-09-08T13:26:18;4.10;;;3.67;;
78787;SDS011;68131;52.508;5.502;2023-09-08T13:28:47;4.10;;;3.13;;
78787;SDS011;68131;52.508;5.502;2023-09-08T13:31:21;4.40;;;3.30;;
78787;SDS011;68131;52.508;5.502;2023-09-08T13:33:50;5.03;;;3.03;;
78787;SDS011;68131;52.508;5.502;2023-09-08T13:36:25;3.15;;;2.90;;
78787;SDS011;68131;52.508;5.502;2023-09-08T13:38:54;4.50;;;3.75;;
78787;SDS011;68131;52.508;5.502;2023-09-08T13:41:24;3.50;;;3.08;;
78787;SDS011;68131;52.508;5.502;2023-09-08T13:43:53;3.70;;;3.22;;
78787;SDS011;68131;52.508;5.502;2023-09-08T13:46:24;4.30;;;3.10;;
78787;SDS011;68131;52.508;5.502;2023-09-08T13:48:54;4.45;;;3.78;;
78787;SDS011;68131;52.508;5.502;2023-09-08T13:51:27;5.28;;;3.53;;
78787;SDS011;68131;52.508;5.502;2023-09-08T13:53:59;4.00;;;3.47;;
78787;SDS011;68131;52.508;5.502;2023-09-08T13:56:29;5.75;;;3.95;;
78787;SDS011;68131;52.508;5.502;2023-09-08T13:58:59;6.50;;;3.42;;
78787;SDS011;68131;52.508;5.502;2023-09-08T14:01:36;5.00;;;3.72;;
78787;SDS011;68131;52.508;5.502;2023-09-08T14:04:05;4.68;;;4.03;;
78787;SDS011;68131;52.508;5.502;2023-09-08T14:06:37;4.93;;;3.97;;
78787;SDS011;68131;52.508;5.502;2023-09-08T14:09:06;4.45;;;3.45;;
78787;SDS011;68131;52.508;5.502;2023-09-08T14:11:37;6.85;;;3.95;;
78787;SDS011;68131;52.508;5.502;2023-09-08T14:14:07;4.28;;;3.70;;
78787;SDS011;68131;52.508;5.502;2023-09-08T14:16:38;4.57;;;3.70;;
78787;SDS011;68131;52.508;5.502;2023-09-08T14:19:08;6.30;;;4.15;;
78787;SDS011;68131;52.508;5.502;2023-09-08T14:21:42;4.10;;;3.70;;
78787;SDS011;68131;52.508;5.502;2023-09-08T14:24:12;4.25;;;3.85;;
78787;SDS011;68131;52.508;5.502;2023-09-08T14:26:42;5.10;;;4.30;;
78787;SDS011;68131;52.508;5.502;2023-09-08T14:29:12;4.32;;;3.92;;
78787;SDS011;68131;52.508;5.502;2023-09-08T14:31:41;4.38;;;3.20;;
78787;SDS011;68131;52.508;5.502;2023-09-08T14:34:12;4.50;;;4.10;;
78787;SDS011;68131;52.508;5.502;2023-09-08T14:36:44;4.18;;;3.40;;
78787;SDS011;68131;52.508;5.502;2023-09-08T14:39:14;5.63;;;3.60;;
78787;SDS011;68131;52.508;5.502;2023-09-08T14:41:45;5.90;;;4.90;;
78787;SDS011;68131;52.508;5.502;2023-09-08T14:44:16;6.63;;;3.95;;
78787;SDS011;68131;52.508;5.502;2023-09-08T14:46:48;6.45;;;4.72;;
78787;SDS011;68131;52.508;5.502;2023-09-08T14:49:19;4.32;;;3.75;;
78787;SDS011;68131;52.508;5.502;2023-09-08T14:51:51;4.40;;;4.00;;
78787;SDS011;68131;52.508;5.502;2023-09-08T14:54:20;4.03;;;3.42;;
78787;SDS011;68131;52.508;5.502;2023-09-08T14:56:54;5.13;;;4.05;;
78787;SDS011;68131;52.508;5.502;2023-09-08T14:59:23;4.95;;;3.97;;
78787;SDS011;68131;52.508;5.502;2023-09-08T15:01:52;4.65;;;4.25;;
78787;SDS011;68131;52.508;5.502;2023-09-08T15:04:26;3.88;;;3.47;;
78787;SDS011;68131;52.508;5.502;2023-09-08T15:07:01;4.97;;;3.75;;
78787;SDS011;68131;52.508;5.502;2023-09-08T15:09:30;4.28;;;3.45;;
78787;SDS011;68131;52.508;5.502;2023-09-08T15:12:00;4.07;;;3.13;;
78787;SDS011;68131;52.508;5.502;2023-09-08T15:14:29;6.03;;;4.20;;
78787;SDS011;68131;52.508;5.502;2023-09-08T15:17:01;5.25;;;4.40;;
78787;SDS011;68131;52.508;5.502;2023-09-08T15:19:32;5.13;;;3.63;;
78787;SDS011;68131;52.508;5.502;2023-09-08T15:22:04;5.20;;;3.70;;
78787;SDS011;68131;52.508;5.502;2023-09-08T15:24:33;4.10;;;3.70;;
78787;SDS011;68131;52.508;5.502;2023-09-08T15:27:03;8.70;;;4.10;;